Time;durP1;ratioP1;P1;durP2;ratioP2;P2;SDS_P1;SDS_P2;PMS_P1;PMS_P2;Temp;Humidity;BMP_temperature;BMP_pressure;BME280_temperature;BME280_humidity;BME280_pressure;Samples;Min_cycle;Max_cycle;Signal;HPM_P1;HPM_P2
2022/06/16 00:01:39;;;;;;;8.03;3.50;;;;;;;22.96;73.13;99385.09;4824616;29;20220;-88
2022/06/16 00:04:04;;;;;;;6.40;3.33;;;;;;;22.97;73.27;99381.44;4824371;29;20197;-89
2022/06/16 00:06:30;;;;;;;5.60;3.40;;;;;;;22.94;73.75;99379.91;4824614;29;20258;-88
2022/06/16 00:08:55;;;;;;;6.77;3.00;;;;;;;22.91;73.79;99387.38;4808184;29;20181;-89
2022/06/16 00:11:21;;;;;;;8.00;2.90;;;;;;;22.98;73.71;99385.81;4824568;29;20201;-88
2022/06/16 00:13:48;;;;;;;6.10;2.80;;;;;;;22.94;73.85;99392.44;4824251;29;20178;-88
2022/06/16 00:16:14;;;;;;;5.60;3.20;;;;;;;23.02;73.44;99389.84;4807673;29;20254;-88
2022/06/16 00:18:41;;;;;;;9.63;3.97;;;;;;;22.99;73.46;99390.13;4824757;29;20181;-88
2022/06/16 00:21:07;;;;;;;7.30;3.57;;;;;;;23.04;73.17;99395.88;4824077;29;20181;-88
2022/06/16 00:23:34;;;;;;;9.03;3.63;;;;;;;22.99;73.56;99393.66;4824184;29;20188;-90
2022/06/16 00:25:59;;;;;;;10.03;4.27;;;;;;;22.94;73.87;99393.28;4824174;29;20185;-88
2022/06/16 00:28:25;;;;;;;9.03;4.80;;;;;;;22.81;74.69;99405.34;4824653;29;20189;-89
2022/06/16 00:30:51;;;;;;;11.00;4.97;;;;;;;22.87;74.96;99396.72;4824017;29;20549;-88
2022/06/16 00:33:16;;;;;;;11.43;4.83;;;;;;;22.92;74.66;99391.75;4808475;29;20629;-88
2022/06/16 00:35:42;;;;;;;8.70;4.27;;;;;;;22.78;75.21;99386.94;4824292;29;20182;-88
2022/06/16 00:38:07;;;;;;;9.00;4.40;;;;;;;22.90;74.62;99380.38;4823991;29;20671;-89
2022/06/16 00:40:33;;;;;;;11.60;5.23;;;;;;;22.94;74.38;99387.09;4824203;29;20261;-88
2022/06/16 00:42:59;;;;;;;11.47;4.23;;;;;;;23.02;73.61;99387.16;4807836;29;20244;-88
2022/06/16 00:45:43;;;;;;;11.23;4.90;;;;;;;23.03;73.37;99391.53;4807903;29;20178;-88
2022/06/16 00:48:31;;;;;;;11.90;5.37;;;;;;;23.00;73.49;99381.13;4807841;29;20648;-88
2022/06/16 00:51:03;;;;;;;10.47;5.20;;;;;;;22.96;73.84;99382.41;4823923;29;20288;-89
2022/06/16 00:53:29;;;;;;;12.33;5.13;;;;;;;22.98;73.71;99383.13;4807813;29;20178;-87
2022/06/16 00:55:56;;;;;;;9.10;5.30;;;;;;;22.96;73.78;99379.75;4824079;29;20616;-88
2022/06/16 00:58:24;;;;;;;9.27;4.13;;;;;;;22.90;73.91;99381.22;4823843;29;20217;-89
2022/06/16 01:00:51;;;;;;;7.97;4.07;;;;;;;22.83;74.28;99373.94;4807700;29;20258;-89
2022/06/16 01:04:51;;;;;;;6.93;3.30;;;;;;;22.79;74.23;99376.09;4823677;29;20213;-89
2022/06/16 01:06:18;;;;;;;5.70;2.80;;;;;;;22.90;73.81;99375.03;4823316;29;20170;-89
2022/06/16 01:08:44;;;;;;;6.87;3.50;;;;;;;22.85;73.36;99375.47;4824032;29;20167;-88
2022/06/16 01:13:41;;;;;;;5.57;3.30;;;;;;;22.87;73.72;99376.19;4823973;29;20182;-89
2022/06/16 01:14:12;;;;;;;5.50;3.03;;;;;;;22.81;73.95;99381.28;4823687;29;20162;-89
2022/06/16 01:16:43;;;;;;;5.23;2.70;;;;;;;22.69;74.41;99378.00;4807617;29;20643;-88
2022/06/16 01:19:14;;;;;;;8.90;2.57;;;;;;;22.72;74.56;99380.34;4823914;29;20235;-88
2022/06/16 01:22:01;;;;;;;8.73;3.00;;;;;;;22.60;75.37;99374.38;4807462;29;20608;-89
2022/06/16 01:24:33;;;;;;;10.50;2.90;;;;;;;22.66;75.39;99382.81;4824082;29;20182;-88
2022/06/16 01:27:01;;;;;;;4.93;2.60;;;;;;;22.63;75.42;99368.75;4808353;29;20185;-89
2022/06/16 01:29:59;;;;;;;7.50;2.83;;;;;;;22.57;75.75;99369.31;4826662;29;20192;-88
2022/06/16 01:32:59;;;;;;;7.10;2.67;;;;;;;22.55;75.98;99365.97;4812026;29;20507;-88
2022/06/16 01:35:50;;;;;;;4.53;2.17;;;;;;;22.69;75.13;99369.13;4753604;30;20271;-88
2022/06/16 01:38:35;;;;;;;5.23;2.70;;;;;;;22.63;74.89;99363.41;4808334;29;20287;-88
2022/06/16 01:41:18;;;;;;;4.90;2.60;;;;;;;22.72;74.56;99366.16;4827019;29;20214;-88
2022/06/16 01:43:52;;;;;;;6.40;2.50;;;;;;;22.64;74.80;99365.06;4810535;29;20656;-89
2022/06/16 01:46:22;;;;;;;4.53;2.33;;;;;;;22.71;74.73;99362.66;4826728;29;20310;-89
2022/06/16 01:48:54;;;;;;;5.80;2.37;;;;;;;22.69;74.58;99353.09;4826339;29;20181;-88
2022/06/16 01:51:24;;;;;;;6.90;2.30;;;;;;;22.74;74.57;99353.50;4826825;29;20615;-88
2022/06/16 01:54:01;;;;;;;8.00;2.70;;;;;;;22.76;74.35;99362.19;4826547;29;20237;-89
2022/06/16 01:56:49;;;;;;;7.23;2.60;;;;;;;22.81;73.99;99366.09;4826546;29;20174;-89
2022/06/16 01:59:20;;;;;;;5.17;2.43;;;;;;;22.77;74.26;99364.72;4826226;29;20166;-89
2022/06/16 02:01:50;;;;;;;5.43;3.23;;;;;;;22.73;74.30;99371.34;4826616;29;20190;-88
2022/06/16 02:04:27;;;;;;;4.33;2.60;;;;;;;22.53;74.95;99373.28;4826347;29;20358;-89
2022/06/16 02:06:56;;;;;;;6.30;3.00;;;;;;;22.62;74.69;99380.41;4826312;29;20169;-88
2022/06/16 02:09:28;;;;;;;5.73;2.50;;;;;;;22.69;74.32;99378.00;4826028;29;20174;-89
2022/06/16 02:12:00;;;;;;;4.47;2.57;;;;;;;22.62;74.54;99385.78;4826278;29;20170;-89
2022/06/16 02:14:42;;;;;;;5.20;2.87;;;;;;;22.61;74.38;99385.91;4826503;29;20174;-89
2022/06/16 02:17:09;;;;;;;7.00;3.20;;;;;;;22.71;74.30;99391.19;4809850;29;20183;-89
2022/06/16 02:19:35;;;;;;;5.93;3.00;;;;;;;22.64;74.18;99385.63;4826355;29;20190;-89
2022/06/16 02:22:02;;;;;;;6.50;3.30;;;;;;;22.55;74.61;99387.34;4809690;29;20209;-88
2022/06/16 02:24:30;;;;;;;5.73;2.53;;;;;;;22.51;75.25;99388.59;4810033;29;20607;-88
2022/06/16 02:26:58;;;;;;;5.60;3.13;;;;;;;22.53;74.81;99392.00;4825769;29;20201;-89
2022/06/16 02:29:30;;;;;;;9.30;3.37;;;;;;;22.39;75.87;99389.81;4825986;29;20242;-89
2022/06/16 02:32:38;;;;;;;8.33;3.13;;;;;;;22.38;75.92;99396.13;4809646;29;20174;-89
2022/06/16 02:35:21;;;;;;;11.03;5.13;;;;;;;22.43;76.19;99399.19;4809603;29;20173;-89
2022/06/16 02:37:59;;;;;;;28.60;9.03;;;;;;;22.51;75.90;99396.63;4825455;29;20174;-88
2022/06/16 02:40:33;;;;;;;30.17;11.13;;;;;;;22.47;75.70;99397.09;4809553;29;20239;-89
2022/06/16 02:43:09;;;;;;;40.70;13.53;;;;;;;22.42;76.24;99394.03;4809312;29;20292;-89
2022/06/16 02:45:48;;;;;;;40.73;13.90;;;;;;;22.49;75.91;99393.28;4809450;29;20181;-88
2022/06/16 02:48:22;;;;;;;37.03;13.20;;;;;;;22.61;75.17;99391.25;4825714;29;20190;-89
2022/06/16 02:51:06;;;;;;;30.93;12.53;;;;;;;22.62;74.78;99398.25;4825421;29;20597;-88
2022/06/16 02:56:19;;;;;;;28.27;11.33;;;;;;;22.55;74.96;99408.72;4825652;29;20210;-89
2022/06/16 02:58:49;;;;;;;25.83;11.03;;;;;;;22.49;75.14;99408.44;4809173;29;20178;-89
2022/06/16 03:01:15;;;;;;;34.60;11.47;;;;;;;22.50;75.33;99413.66;4825669;29;20262;-89
2022/06/16 03:03:41;;;;;;;27.73;11.43;;;;;;;22.49;74.95;99403.97;4824991;29;20186;-90
2022/06/16 03:06:09;;;;;;;29.53;11.17;;;;;;;22.48;75.54;99402.25;4825430;29;20189;-89
2022/06/16 03:08:43;;;;;;;31.77;11.53;;;;;;;22.44;75.51;99405.38;4825175;29;20220;-89
2022/06/16 03:11:10;;;;;;;29.90;12.07;;;;;;;22.41;76.00;99411.88;4825393;29;20162;-89
2022/06/16 03:13:36;;;;;;;26.37;11.20;;;;;;;22.56;75.32;99410.38;4825596;29;20670;-89
2022/06/16 03:16:03;;;;;;;23.73;11.20;;;;;;;22.66;74.79;99404.19;4808993;29;20205;-89
2022/06/16 03:18:28;;;;;;;23.40;11.10;;;;;;;22.75;74.77;99408.59;4824988;29;20620;-88
2022/06/16 03:20:54;;;;;;;23.83;11.70;;;;;;;22.82;73.86;99410.56;4824961;29;20214;-88
2022/06/16 03:23:20;;;;;;;24.27;11.33;;;;;;;22.85;73.82;99409.41;4808775;29;20292;-88
2022/06/16 03:25:46;;;;;;;30.87;13.90;;;;;;;22.82;73.77;99413.22;4824920;29;20824;-89
2022/06/16 03:28:13;;;;;;;21.37;10.43;;;;;;;22.87;74.07;99420.78;4824856;29;20253;-88
2022/06/16 03:30:39;;;;;;;23.50;10.87;;;;;;;22.75;74.17;99428.16;4824820;29;20273;-88
2022/06/16 03:33:07;;;;;;;24.53;11.53;;;;;;;22.71;74.49;99417.94;4824823;29;20174;-88
2022/06/16 03:35:32;;;;;;;24.37;12.93;;;;;;;22.72;74.59;99414.28;4824767;29;20178;-88
2022/06/16 03:38:17;;;;;;;22.23;10.93;;;;;;;22.63;75.02;99416.84;4824582;29;20189;-88
2022/06/16 03:40:43;;;;;;;22.17;11.37;;;;;;;22.61;75.39;99413.44;4824675;29;20170;-88
2022/06/16 03:43:08;;;;;;;37.13;15.63;;;;;;;22.71;74.85;99415.25;4820075;29;20274;-88
2022/06/16 03:45:35;;;;;;;26.27;10.83;;;;;;;22.69;74.55;99404.72;4815862;29;20196;-89
2022/06/16 03:48:01;;;;;;;26.70;11.70;;;;;;;22.71;74.56;99399.22;4824238;29;20178;-89
2022/06/16 03:50:26;;;;;;;23.17;10.60;;;;;;;22.73;74.52;99405.25;4807149;29;20197;-89
2022/06/16 03:52:52;;;;;;;25.70;11.70;;;;;;;22.70;74.54;99410.88;4808019;29;20185;-89
2022/06/16 03:55:17;;;;;;;25.00;12.77;;;;;;;22.76;74.58;99400.44;4823346;29;20181;-89
2022/06/16 03:57:45;;;;;;;26.83;12.43;;;;;;;22.80;74.70;99409.03;4823240;29;20186;-88
2022/06/16 04:00:12;;;;;;;26.90;12.87;;;;;;;22.80;74.28;99409.03;4808137;29;20201;-88
2022/06/16 04:02:37;;;;;;;24.23;11.53;;;;;;;22.77;74.47;99409.31;4808148;29;20206;-88
2022/06/16 04:05:06;;;;;;;22.67;10.90;;;;;;;22.69;75.01;99410.06;4824337;29;20208;-89
2022/06/16 04:07:32;;;;;;;22.80;10.97;;;;;;;22.75;75.26;99413.94;4808135;29;20272;-89
2022/06/16 04:09:58;;;;;;;29.27;11.30;;;;;;;22.92;74.62;99413.13;4824310;29;20264;-88
2022/06/16 04:12:25;;;;;;;24.60;11.17;;;;;;;23.01;74.36;99405.03;4824575;29;20178;-89
2022/06/16 04:14:51;;;;;;;29.67;13.03;;;;;;;23.13;73.63;99405.66;4824274;29;20265;-89
2022/06/16 04:17:17;;;;;;;26.57;12.57;;;;;;;23.24;73.04;99408.09;4824478;29;20250;-88
2022/06/16 04:22:27;;;;;;;27.30;12.60;;;;;;;23.27;72.43;99405.09;4824151;29;20757;-89
2022/06/16 04:24:52;;;;;;;30.27;13.50;;;;;;;23.30;72.70;99399.44;4824630;29;20223;-89
2022/06/16 04:27:18;;;;;;;28.67;12.60;;;;;;;23.40;71.95;99402.91;4824246;29;20639;-89
2022/06/16 04:29:43;;;;;;;38.23;13.90;;;;;;;23.36;71.90;99409.53;4808486;29;20640;-88
2022/06/16 04:32:09;;;;;;;23.53;11.07;;;;;;;23.37;71.97;99405.91;4807898;29;20182;-88
2022/06/16 04:34:35;;;;;;;29.67;11.67;;;;;;;23.52;71.69;99404.34;4824251;29;20188;-89
2022/06/16 04:37:00;;;;;;;37.50;12.97;;;;;;;23.53;71.69;99399.84;4824010;29;20189;-89
2022/06/16 04:39:28;;;;;;;29.73;11.07;;;;;;;23.49;71.60;99410.00;4823950;29;20629;-89
2022/06/16 04:41:53;;;;;;;34.83;12.63;;;;;;;23.61;71.27;99408.75;4807705;29;20206;-89
2022/06/16 04:44:19;;;;;;;32.97;12.43;;;;;;;23.68;70.64;99411.66;4824180;29;20528;-89
2022/06/16 04:46:44;;;;;;;37.43;13.77;;;;;;;23.74;70.07;99411.84;4823899;29;20181;-89
2022/06/16 04:49:11;;;;;;;40.53;15.30;;;;;;;23.76;69.66;99417.06;4824211;29;20188;-89
2022/06/16 04:51:37;;;;;;;46.40;17.67;;;;;;;23.69;70.26;99414.16;4823884;29;20216;-89
2022/06/16 04:54:03;;;;;;;44.20;15.87;;;;;;;23.72;69.81;99421.88;4824074;29;20209;-87
2022/06/16 04:56:28;;;;;;;48.57;17.60;;;;;;;23.72;70.33;99416.53;4824067;29;20541;-88
2022/06/16 04:58:54;;;;;;;52.23;18.07;;;;;;;23.54;70.85;99417.56;4824156;29;20174;-88
2022/06/16 05:01:19;;;;;;;63.80;18.57;;;;;;;23.69;70.45;99410.63;4825324;29;20178;-88
2022/06/16 05:03:45;;;;;;;55.33;18.90;;;;;;;23.72;70.48;99415.69;4827260;29;20221;-89
2022/06/16 05:06:12;;;;;;;58.07;18.80;;;;;;;23.78;70.34;99415.91;4827669;29;20503;-89
2022/06/16 05:08:38;;;;;;;60.37;17.67;;;;;;;23.86;69.88;99423.16;4827020;29;20209;-89
2022/06/16 05:11:03;;;;;;;59.40;18.53;;;;;;;23.97;69.06;99424.72;4811420;29;20659;-88
2022/06/16 05:13:29;;;;;;;62.23;19.33;;;;;;;23.53;70.73;99432.78;4811429;29;20185;-89
2022/06/16 05:15:58;;;;;;;57.67;17.70;;;;;;;23.61;70.20;99429.34;4826975;29;20213;-88
2022/06/16 05:18:25;;;;;;;62.90;19.73;;;;;;;23.72;70.43;99431.75;4811763;29;20720;-89
2022/06/16 05:21:21;;;;;;;;;;;;;;;;;;;;;
2022/06/16 05:23:52;;;;;;;47.23;13.53;;;;;;;23.47;71.40;99428.06;4826759;29;20663;-89
2022/06/16 05:27:28;;;;;;;;;;;;;;;;;;;;;
2022/06/16 05:29:46;;;;;;;49.17;13.47;;;;;;;23.83;71.86;99421.63;4820819;29;20597;-88
2022/06/16 05:35:38;;;;;;;35.40;13.90;;;;;;;24.00;69.51;99425.25;4808802;29;20196;-90
2022/06/16 05:38:05;;;;;;;48.33;16.53;;;;;;;24.07;68.91;99425.44;4811012;29;20250;-90
2022/06/16 05:40:31;;;;;;;68.73;18.33;;;;;;;24.16;68.83;99421.88;4826585;29;20185;-88
2022/06/16 05:43:12;;;;;;;67.73;17.80;;;;;;;24.23;68.72;99426.41;4826678;29;20749;-90
2022/06/16 05:45:43;;;;;;;80.60;22.13;;;;;;;24.42;68.05;99430.69;4810791;29;20188;-89
2022/06/16 05:51:03;;;;;;;81.63;22.73;;;;;;;24.54;67.86;99424.03;4816873;29;20198;-89
2022/06/16 05:53:31;;;;;;;96.60;24.07;;;;;;;24.45;67.17;99420.47;4810348;29;20182;-88
2022/06/16 05:55:57;;;;;;;109.07;27.83;;;;;;;24.55;67.84;99425.72;4826276;29;20250;-89
2022/06/16 05:58:23;;;;;;;109.97;27.53;;;;;;;24.60;67.36;99431.44;4811094;29;20617;-87
2022/06/16 06:00:51;;;;;;;91.93;25.00;;;;;;;24.75;66.03;99434.31;4826491;29;20188;-89
2022/06/16 06:03:25;;;;;;;88.50;24.33;;;;;;;24.92;66.36;99422.66;4826090;29;20570;-90
2022/06/16 06:05:53;;;;;;;98.07;25.10;;;;;;;25.17;64.61;99423.53;4810560;29;20198;-90
2022/06/16 06:18:04;;;;;;;94.00;23.83;;;;;;;25.93;62.52;99424.88;4826515;29;20246;-89
2022/06/16 06:31:04;;;;;;;;;;;;;;;;;;;;;
2022/06/16 06:34:03;;;;;;;;;;;;;;;;;;;;;
2022/06/16 06:36:34;;;;;;;94.95;21.20;;;;;;;27.58;54.40;99437.19;4733426;30;20722;-89
2022/06/16 06:39:03;;;;;;;76.28;19.27;;;;;;;27.44;53.55;99430.72;4735100;30;20719;-89
2022/06/16 06:41:28;;;;;;;67.28;17.30;;;;;;;27.39;54.29;99430.41;4776813;29;20206;-88
2022/06/16 06:44:12;;;;;;;;;;;;;;;;;;;;;
2022/06/16 06:46:41;;;;;;;66.45;16.13;;;;;;;27.65;51.73;99432.75;4826039;29;20517;-89
2022/06/16 06:49:59;;;;;;;;;;;;;;;;;;;;;
2022/06/16 06:52:27;;;;;;;75.70;19.55;;;;;;;28.01;51.14;99425.69;4820582;29;20200;-89
2022/06/16 06:55:39;;;;;;;70.55;17.95;;;;;;;28.11;52.02;99431.66;4810286;29;20182;-90
2022/06/16 06:58:07;;;;;;;77.70;19.83;;;;;;;27.94;52.39;99432.81;4809346;29;20177;-89
2022/06/16 07:00:32;;;;;;;58.70;18.48;;;;;;;28.13;50.41;99434.16;4809129;29;20196;-89
2022/06/16 07:03:10;;;;;;;55.40;17.10;;;;;;;28.35;49.60;99434.09;4809195;29;20340;-90
2022/06/16 07:05:57;;;;;;;;;;;;;;;;;;;;;
2022/06/16 07:08:46;;;;;;;53.70;15.95;;;;;;;28.77;48.26;99427.16;4825187;29;20189;-91
2022/06/16 07:11:12;;;;;;;58.53;17.63;;;;;;;28.83;48.41;99431.78;4825215;29;20178;-88
2022/06/16 07:13:51;;;;;;;57.88;18.10;;;;;;;29.13;49.56;99434.22;4825139;29;20682;-90
2022/06/16 07:16:18;;;;;;;46.00;17.17;;;;;;;29.10;48.50;99428.38;4825075;29;20194;-90
2022/06/16 07:18:46;;;;;;;46.75;15.82;;;;;;;29.27;48.65;99423.59;4825262;29;20186;-89
2022/06/16 07:22:00;;;;;;;55.10;15.90;;;;;;;29.54;47.48;99430.88;4825584;29;20178;-90
2022/06/16 07:25:26;;;;;;;;;;;;;;;;;;;;;
2022/06/16 07:29:10;;;;;;;38.00;12.48;;;;;;;29.58;46.42;99427.63;4808494;29;20209;-90
2022/06/16 07:31:11;;;;;;;29.23;9.38;;;;;;;29.71;44.75;99433.16;4810817;29;20235;-89
2022/06/16 07:34:17;;;;;;;29.00;10.40;;;;;;;29.76;45.30;99430.69;4824759;29;20212;-91
2022/06/16 07:37:12;;;;;;;26.70;10.30;;;;;;;30.08;44.40;99426.59;4825024;29;20182;-91
2022/06/16 07:43:42;;;;;;;18.50;7.43;;;;;;;30.22;42.82;99424.78;4733535;30;20259;-90
2022/06/16 07:46:34;;;;;;;26.48;7.50;;;;;;;29.92;43.76;99417.94;4732811;30;20213;-90
2022/06/16 07:49:08;;;;;;;16.25;6.22;;;;;;;29.84;43.72;99416.22;4749467;30;20201;-90
2022/06/16 07:52:21;;;;;;;;;;;;;;;;;;;;;
2022/06/16 08:10:34;;;;;;;12.05;3.95;;;;;;;31.26;38.42;99420.88;4633822;30;20219;-91
2022/06/16 08:17:01;;;;;;;;;;;;;;;;;;;;;
2022/06/16 08:20:05;;;;;;;7.15;3.00;;;;;;;31.45;40.19;99415.50;4698723;30;20566;-91
2022/06/16 08:22:46;;;;;;;5.78;2.70;;;;;;;30.96;37.26;99421.22;4712696;30;20289;-90
2022/06/16 08:32:37;;;;;;;4.88;1.80;;;;;;;31.29;37.79;99425.88;4684016;30;20196;-90
2022/06/16 08:35:57;;;;;;;5.70;2.13;;;;;;;31.42;38.70;99415.88;4715911;30;20658;-92
2022/06/16 08:38:50;;;;;;;5.25;1.92;;;;;;;30.72;38.56;99427.13;4735493;30;20181;-90
2022/06/16 08:42:01;;;;;;;5.18;2.03;;;;;;;30.50;38.97;99417.50;4821288;29;20194;-90
2022/06/16 08:45:12;;;;;;;7.38;2.58;;;;;;;31.13;39.37;99418.13;4828134;29;20190;-91
2022/06/16 08:47:56;;;;;;;3.97;1.98;;;;;;;31.72;36.91;99415.50;4704414;30;20201;-91
2022/06/16 09:08:48;;;;;;;4.10;1.10;;;;;;;32.07;36.49;99401.53;4578558;30;20295;-90
2022/06/16 09:11:52;;;;;;;4.93;1.33;;;;;;;32.29;34.92;99399.34;4635598;30;20291;-91
2022/06/16 09:15:24;;;;;;;;;;;;;;;;;;;;;
2022/06/16 09:18:41;;;;;;;;;;;;;;;;;;;;;
2022/06/16 09:26:12;;;;;;;5.85;1.55;;;;;;;32.04;34.69;99395.69;4633369;31;20644;-91
2022/06/16 09:28:53;;;;;;;4.55;1.50;;;;;;;31.78;34.35;99391.09;4698413;29;20814;-93
2022/06/16 09:31:35;;;;;;;5.53;1.15;;;;;;;31.92;34.81;99391.94;4811085;29;20192;-91
2022/06/16 09:37:56;;;;;;;;;;;;;;;;;;;;;
2022/06/16 09:47:21;;;;;;;4.65;1.45;;;;;;;31.93;34.00;99383.56;4794954;29;20201;-91
2022/06/16 09:50:05;;;;;;;4.13;1.60;;;;;;;31.63;34.95;99378.81;4826680;29;20197;-91
2022/06/16 09:52:56;;;;;;;4.00;1.25;;;;;;;31.38;34.89;99383.97;4826692;29;20165;-89
2022/06/16 09:55:36;;;;;;;1.92;0.93;;;;;;;31.40;36.44;99388.16;4810312;29;20268;-89
2022/06/16 09:59:25;;;;;;;;;;;;;;;;;;;;;
2022/06/16 10:02:26;;;;;;;1.98;1.10;;;;;;;32.28;33.79;99380.59;4820841;29;20186;-91
2022/06/16 10:05:48;;;;;;;2.00;1.00;;;;;;;31.93;34.07;99371.88;4738116;30;20196;-92
2022/06/16 10:12:19;;;;;;;1.58;0.90;;;;;;;32.18;32.95;99376.44;4717351;30;20208;-93
2022/06/16 10:18:19;;;;;;;1.48;0.73;;;;;;;32.84;32.53;99368.03;4717048;30;20327;-92
2022/06/16 10:20:47;;;;;;;3.85;0.90;;;;;;;32.47;32.77;99369.66;4732749;30;20208;-89
2022/06/16 10:30:21;;;;;;;4.03;1.25;;;;;;;32.78;32.48;99367.00;4664893;30;20629;-91
2022/06/16 10:47:18;;;;;;;3.10;0.98;;;;;;;33.16;30.79;99342.56;4602105;31;20208;-91
2022/06/16 11:17:50;;;;;;;;;;;;;;;;;;;;;
2022/06/16 11:44:51;;;;;;;2.05;0.80;;;;;;;33.16;30.44;99285.50;4680840;30;20292;-93
2022/06/16 12:54:08;;;;;;;1.05;0.65;;;;;;;34.04;30.09;99256.19;4824533;29;20313;-91
2022/06/16 13:07:43;;;;;;;1.77;1.08;;;;;;;34.47;28.92;99231.53;4824848;29;20186;-94
2022/06/16 13:40:27;;;;;;;0.95;0.40;;;;;;;33.86;26.78;99216.22;4823767;29;20196;-91
2022/06/16 13:49:56;;;;;;;3.58;0.80;;;;;;;33.83;26.51;99218.56;4789200;30;20642;-90
2022/06/16 14:03:51;;;;;;;;;;;;;;;;;;;;;
2022/06/16 14:07:05;;;;;;;8.25;0.90;;;;;;;34.58;28.08;99196.22;4770910;30;20653;-93
2022/06/16 14:10:33;;;;;;;;;;;;;;;;;;;;;
2022/06/16 14:13:23;;;;;;;;;;;;;;;;;;;;;
2022/06/16 14:27:09;;;;;;;;;;;;;;;;;;;;;
2022/06/16 14:30:27;;;;;;;1.63;0.70;;;;;;;33.68;25.92;99190.91;4730669;30;20197;-93
2022/06/16 14:33:49;;;;;;;;;;;;;;;;;;;;;
2022/06/16 14:36:22;;;;;;;1.70;0.55;;;;;;;33.78;26.13;99188.53;4745958;30;20638;-90
2022/06/16 14:39:17;;;;;;;1.25;0.57;;;;;;;33.61;26.57;99182.00;4792120;29;20194;-92
2022/06/16 14:42:52;;;;;;;2.25;0.73;;;;;;;33.96;25.76;99175.69;4808247;29;20186;-92
2022/06/16 14:45:23;;;;;;;0.82;0.45;;;;;;;33.65;26.13;99178.59;4725595;29;20239;-89
2022/06/16 15:23:58;;;;;;;0.90;0.50;;;;;;;33.32;27.48;99140.09;4485187;32;20230;-92
2022/06/16 15:36:39;;;;;;;1.98;0.60;;;;;;;32.85;29.11;99143.47;4647238;30;20240;-91
2022/06/16 15:54:07;;;;;;;1.88;0.75;;;;;;;32.64;29.14;99139.28;4663445;30;20218;-90
2022/06/16 16:18:35;;;;;;;;;;;;;;;;;;;;;
2022/06/16 16:22:01;;;;;;;;;;;;;;;;;;;;;
2022/06/16 16:31:32;;;;;;;3.47;0.82;;;;;;;31.13;31.57;99131.06;4571664;31;20301;-91
2022/06/16 16:34:30;;;;;;;3.17;0.70;;;;;;;31.08;31.21;99130.88;4596154;31;20273;-92
2022/06/16 16:47:10;;;;;;;2.10;0.70;;;;;;;30.59;32.93;99140.25;4664304;30;20199;-92
2022/06/16 16:50:16;;;;;;;1.90;0.70;;;;;;;30.43;33.35;99141.50;4681162;30;20179;-93
2022/06/16 16:52:44;;;;;;;5.00;0.70;;;;;;;30.27;34.61;99136.44;4770544;30;20198;-90
2022/06/16 16:55:16;;;;;;;5.18;1.60;;;;;;;30.09;34.73;99148.91;4772260;30;20199;-90
2022/06/16 16:57:47;;;;;;;1.00;0.63;;;;;;;29.94;34.84;99151.78;4773657;30;20361;-91
2022/06/16 17:00:22;;;;;;;1.45;0.70;;;;;;;29.81;35.41;99151.75;4791294;29;20307;-92
2022/06/16 17:02:52;;;;;;;3.88;1.67;;;;;;;29.86;35.77;99159.25;4791569;30;20357;-91
2022/06/16 17:05:18;;;;;;;1.30;0.70;;;;;;;29.83;35.44;99155.91;4791493;30;20176;-90
2022/06/16 17:07:52;;;;;;;1.73;0.73;;;;;;;29.79;36.04;99159.22;4775706;30;20270;-93
2022/06/16 17:10:18;;;;;;;5.45;1.20;;;;;;;29.82;36.25;99159.63;4791825;30;20370;-90
2022/06/16 17:12:46;;;;;;;4.65;1.00;;;;;;;29.88;36.36;99167.97;4775449;30;20278;-91
2022/06/16 17:18:55;;;;;;;2.45;0.80;;;;;;;29.91;36.48;99167.56;4736296;30;20228;-91
2022/06/16 17:21:43;;;;;;;;;;;;;;;;;;;;;
2022/06/16 17:24:25;;;;;;;0.82;0.45;;;;;;;29.40;37.84;99173.38;4736544;30;20209;-90
2022/06/16 17:29:44;;;;;;;3.78;0.63;;;;;;;29.47;38.07;99176.09;4736314;30;20209;-91
2022/06/16 17:32:18;;;;;;;2.47;0.95;;;;;;;29.23;38.39;99175.56;4736405;30;20584;-92
2022/06/16 17:35:43;;;;;;;;;;;;;;;;;;;;;
2022/06/16 18:10:36;;;;;;;2.70;0.90;;;;;;;28.33;40.55;99195.31;4732107;30;20204;-92
2022/06/16 18:13:41;;;;;;;;;;;;;;;;;;;;;
2022/06/16 18:16:45;;;;;;;1.88;0.60;;;;;;;27.84;40.26;99197.84;4746111;30;20201;-92
2022/06/16 18:19:36;;;;;;;3.08;0.85;;;;;;;27.52;41.14;99215.25;4753069;30;20193;-91
2022/06/16 18:25:53;;;;;;;3.40;0.52;;;;;;;27.35;41.47;99219.13;4666674;30;20208;-92
2022/06/16 18:28:54;;;;;;;2.78;0.68;;;;;;;27.18;42.07;99221.13;4703700;30;20557;-93
2022/06/16 18:32:17;;;;;;;6.38;1.30;;;;;;;27.40;41.70;99220.28;4701810;30;20208;-91
2022/06/16 18:34:47;;;;;;;1.55;0.80;;;;;;;27.28;41.96;99226.28;4712151;30;20212;-91
2022/06/16 18:37:14;;;;;;;1.77;0.80;;;;;;;27.35;41.61;99230.72;4717652;30;20388;-89
2022/06/16 18:42:58;;;;;;;3.65;1.23;;;;;;;27.04;41.91;99256.13;4696725;30;20299;-89
2022/06/16 18:45:25;;;;;;;4.22;1.17;;;;;;;26.70;43.00;99254.66;4683431;30;20187;-90
2022/06/16 18:47:52;;;;;;;3.33;0.90;;;;;;;26.75;42.67;99270.28;4682963;30;20611;-89
2022/06/16 18:50:21;;;;;;;2.35;0.90;;;;;;;26.64;42.87;99270.69;4683298;30;20269;-91
2022/06/16 18:52:47;;;;;;;1.77;0.77;;;;;;;26.51;43.22;99270.47;4671160;30;20326;-89
2022/06/16 18:55:14;;;;;;;1.23;0.55;;;;;;;26.53;43.56;99276.50;4740172;29;20194;-91
2022/06/16 18:57:49;;;;;;;3.10;0.60;;;;;;;26.50;43.32;99282.22;4791442;29;20195;-91
2022/06/16 19:00:19;;;;;;;1.15;0.60;;;;;;;26.56;43.44;99285.03;4791587;29;20656;-91
2022/06/16 19:02:56;;;;;;;5.45;0.98;;;;;;;26.57;43.27;99281.31;4791417;29;20214;-92
2022/06/16 19:05:24;;;;;;;4.55;1.00;;;;;;;26.40;43.23;99289.69;4791835;29;20524;-90
2022/06/16 19:07:51;;;;;;;3.45;0.63;;;;;;;26.32;43.01;99289.72;4807242;29;20197;-90
2022/06/16 19:10:18;;;;;;;3.85;1.27;;;;;;;26.17;43.11;99292.34;4791136;29;20182;-90
2022/06/16 19:12:44;;;;;;;2.42;0.70;;;;;;;26.09;42.80;99292.34;4791735;29;20267;-90
2022/06/16 19:15:12;;;;;;;3.67;0.80;;;;;;;25.94;42.41;99286.84;4801830;29;20638;-91
2022/06/16 19:18:02;;;;;;;5.03;0.93;;;;;;;25.97;42.40;99301.81;4800788;29;20331;-87
2022/06/16 19:20:35;;;;;;;4.33;1.13;;;;;;;25.96;41.87;99298.28;4827767;29;20166;-89
2022/06/16 19:23:25;;;;;;;6.80;0.77;;;;;;;25.98;42.03;99298.94;4843473;29;20727;-91
2022/06/16 19:26:19;;;;;;;2.40;1.00;;;;;;;25.98;41.83;99307.00;4787636;29;20182;-91
2022/06/16 19:28:46;;;;;;;0.73;0.50;;;;;;;26.02;41.89;99308.31;4790465;29;20187;-91
2022/06/16 19:31:32;;;;;;;3.20;1.23;;;;;;;26.07;41.53;99314.00;4807066;29;20182;-90
2022/06/16 19:34:17;;;;;;;2.33;0.87;;;;;;;26.03;41.45;99312.69;4808110;29;20187;-92
2022/06/16 19:36:46;;;;;;;2.90;1.30;;;;;;;25.99;41.55;99316.75;4798371;29;20245;-92
2022/06/16 19:39:18;;;;;;;3.63;1.03;;;;;;;25.73;41.69;99313.47;4806472;29;20223;-90
2022/06/16 19:41:49;;;;;;;4.00;0.83;;;;;;;25.74;41.77;99322.34;4821988;29;20263;-91
2022/06/16 19:53:09;;;;;;;2.23;0.70;;;;;;;25.68;41.52;99318.53;4806771;29;20170;-90
2022/06/16 19:55:39;;;;;;;7.33;0.90;;;;;;;25.68;41.93;99318.53;4790443;29;20551;-91
2022/06/16 19:58:11;;;;;;;3.00;1.03;;;;;;;25.70;41.79;99315.66;4806222;29;20182;-90
2022/06/16 20:00:57;;;;;;;1.87;0.80;;;;;;;25.69;41.79;99314.81;4790537;29;20170;-90
2022/06/16 20:03:27;;;;;;;2.60;0.80;;;;;;;25.56;41.80;99307.31;4806652;29;20198;-91
2022/06/16 20:08:55;;;;;;;2.37;1.10;;;;;;;25.51;41.89;99306.13;4794425;29;20197;-90
2022/06/16 20:11:20;;;;;;;1.97;0.80;;;;;;;25.40;42.59;99312.66;4826611;29;20188;-91
2022/06/16 20:13:45;;;;;;;3.10;0.70;;;;;;;25.41;41.80;99310.81;4822297;29;20191;-90
2022/06/16 20:16:11;;;;;;;1.80;0.77;;;;;;;25.42;41.64;99312.50;4805403;29;20661;-92
2022/06/16 20:18:48;;;;;;;4.90;0.70;;;;;;;25.08;42.55;99309.19;4803505;29;20629;-92
2022/06/16 20:21:17;;;;;;;6.40;0.83;;;;;;;24.91;42.06;99297.63;4788169;29;20501;-90
2022/06/16 20:23:54;;;;;;;6.07;0.73;;;;;;;24.96;41.77;99295.28;4788269;29;20691;-91
2022/06/16 20:26:36;;;;;;;2.33;0.63;;;;;;;24.90;41.66;99294.09;4803644;29;20186;-91
2022/06/16 20:29:05;;;;;;;2.00;0.83;;;;;;;24.87;41.57;99297.09;4789281;29;20652;-90
2022/06/16 20:31:32;;;;;;;1.70;0.80;;;;;;;24.80;41.78;99306.84;4790415;29;20186;-91
2022/06/16 20:33:58;;;;;;;1.77;0.70;;;;;;;24.82;41.60;99310.16;4809979;29;20185;-89
2022/06/16 20:36:25;;;;;;;2.47;0.90;;;;;;;24.78;41.54;99303.47;4810111;29;20539;-89
2022/06/16 20:38:52;;;;;;;1.67;0.90;;;;;;;24.66;41.25;99310.13;4809696;29;20171;-92